sensor_id;sensor_type;location;lat;lon;timestamp;P1;durP1;ratioP1;P2;durP2;ratioP2
17382;SDS011;8809;51.892;8.384;2022-12-15T00:00:51;18.92;;;10.68;;
17382;SDS011;8809;51.892;8.384;2022-12-15T00:03:35;21.83;;;12.88;;
17382;SDS011;8809;51.892;8.384;2022-12-15T00:06:20;23.88;;;14.27;;
17382;SDS011;8809;51.892;8.384;2022-12-15T00:09:05;23.45;;;12.55;;
17382;SDS011;8809;51.892;8.384;2022-12-15T00:11:49;16.13;;;11.70;;
17382;SDS011;8809;51.892;8.384;2022-12-15T00:14:34;19.58;;;11.80;;
17382;SDS011;8809;51.892;8.384;2022-12-15T00:17:19;24.52;;;12.63;;
17382;SDS011;8809;51.892;8.384;2022-12-15T00:20:04;19.27;;;11.40;;
17382;SDS011;8809;51.892;8.384;2022-12-15T00:22:53;24.67;;;14.52;;
17382;SDS011;8809;51.892;8.384;2022-12-15T00:25:37;27.38;;;14.85;;
17382;SDS011;8809;51.892;8.384;2022-12-15T00:28:21;21.17;;;13.02;;
17382;SDS011;8809;51.892;8.384;2022-12-15T00:31:06;20.55;;;12.60;;
17382;SDS011;8809;51.892;8.384;2022-12-15T00:33:54;21.25;;;13.00;;
17382;SDS011;8809;51.892;8.384;2022-12-15T00:36:39;22.73;;;12.50;;
17382;SDS011;8809;51.892;8.384;2022-12-15T00:39:24;21.02;;;11.85;;
17382;SDS011;8809;51.892;8.384;2022-12-15T00:41:51;20.45;;;11.88;;
17382;SDS011;8809;51.892;8.384;2022-12-15T00:44:17;21.08;;;12.02;;
17382;SDS011;8809;51.892;8.384;2022-12-15T00:46:45;18.75;;;11.18;;
17382;SDS011;8809;51.892;8.384;2022-12-15T00:49:21;21.38;;;12.10;;
17382;SDS011;8809;51.892;8.384;2022-12-15T00:52:06;21.55;;;12.63;;
17382;SDS011;8809;51.892;8.384;2022-12-15T00:54:51;19.65;;;12.32;;
17382;SDS011;8809;51.892;8.384;2022-12-15T00:57:35;19.25;;;12.05;;
17382;SDS011;8809;51.892;8.384;2022-12-15T01:00:20;25.75;;;13.98;;
17382;SDS011;8809;51.892;8.384;2022-12-15T01:03:08;27.55;;;15.77;;
17382;SDS011;8809;51.892;8.384;2022-12-15T01:05:55;25.63;;;14.77;;
17382;SDS011;8809;51.892;8.384;2022-12-15T01:08:39;24.95;;;13.68;;
17382;SDS011;8809;51.892;8.384;2022-12-15T01:11:24;29.42;;;17.77;;
17382;SDS011;8809;51.892;8.384;2022-12-15T01:14:08;25.83;;;15.57;;
17382;SDS011;8809;51.892;8.384;2022-12-15T01:16:52;27.73;;;13.98;;
17382;SDS011;8809;51.892;8.384;2022-12-15T01:19:36;25.38;;;13.70;;
17382;SDS011;8809;51.892;8.384;2022-12-15T01:22:22;23.80;;;14.35;;
17382;SDS011;8809;51.892;8.384;2022-12-15T01:24:49;22.63;;;13.63;;
17382;SDS011;8809;51.892;8.384;2022-12-15T01:27:16;23.55;;;14.05;;
17382;SDS011;8809;51.892;8.384;2022-12-15T01:29:43;22.45;;;14.20;;
17382;SDS011;8809;51.892;8.384;2022-12-15T01:32:11;21.55;;;13.30;;
17382;SDS011;8809;51.892;8.384;2022-12-15T01:34:38;23.92;;;13.88;;
17382;SDS011;8809;51.892;8.384;2022-12-15T01:37:04;27.08;;;15.77;;
17382;SDS011;8809;51.892;8.384;2022-12-15T01:39:32;24.20;;;14.43;;
17382;SDS011;8809;51.892;8.384;2022-12-15T01:42:13;25.10;;;15.13;;
17382;SDS011;8809;51.892;8.384;2022-12-15T01:44:40;25.40;;;15.80;;
17382;SDS011;8809;51.892;8.384;2022-12-15T01:47:10;23.60;;;14.07;;
17382;SDS011;8809;51.892;8.384;2022-12-15T01:49:38;23.13;;;13.95;;
17382;SDS011;8809;51.892;8.384;2022-12-15T01:52:07;26.98;;;15.65;;
17382;SDS011;8809;51.892;8.384;2022-12-15T01:54:37;25.58;;;14.18;;
17382;SDS011;8809;51.892;8.384;2022-12-15T01:57:09;29.15;;;15.50;;
17382;SDS011;8809;51.892;8.384;2022-12-15T01:59:45;25.00;;;14.20;;
17382;SDS011;8809;51.892;8.384;2022-12-15T02:02:15;25.52;;;13.68;;
17382;SDS011;8809;51.892;8.384;2022-12-15T02:04:43;23.50;;;13.88;;
17382;SDS011;8809;51.892;8.384;2022-12-15T02:07:11;23.83;;;13.95;;
17382;SDS011;8809;51.892;8.384;2022-12-15T02:09:40;23.52;;;14.30;;
17382;SDS011;8809;51.892;8.384;2022-12-15T02:12:11;30.17;;;15.63;;
17382;SDS011;8809;51.892;8.384;2022-12-15T02:14:51;23.50;;;13.82;;
17382;SDS011;8809;51.892;8.384;2022-12-15T02:17:32;25.52;;;13.07;;
17382;SDS011;8809;51.892;8.384;2022-12-15T02:23:23;23.80;;;13.05;;
17382;SDS011;8809;51.892;8.384;2022-12-15T02:26:11;22.00;;;13.02;;
17382;SDS011;8809;51.892;8.384;2022-12-15T02:28:51;24.10;;;13.02;;
17382;SDS011;8809;51.892;8.384;2022-12-15T02:31:30;22.23;;;13.40;;
17382;SDS011;8809;51.892;8.384;2022-12-15T02:34:17;19.75;;;11.57;;
17382;SDS011;8809;51.892;8.384;2022-12-15T02:36:52;23.10;;;12.30;;
17382;SDS011;8809;51.892;8.384;2022-12-15T02:39:22;18.88;;;11.10;;
17382;SDS011;8809;51.892;8.384;2022-12-15T02:41:49;22.95;;;12.85;;
17382;SDS011;8809;51.892;8.384;2022-12-15T02:44:18;20.48;;;12.18;;
17382;SDS011;8809;51.892;8.384;2022-12-15T02:46:56;22.60;;;11.93;;
17382;SDS011;8809;51.892;8.384;2022-12-15T02:49:35;17.67;;;11.15;;
17382;SDS011;8809;51.892;8.384;2022-12-15T02:52:13;22.00;;;12.10;;
17382;SDS011;8809;51.892;8.384;2022-12-15T02:54:56;16.55;;;10.60;;
17382;SDS011;8809;51.892;8.384;2022-12-15T02:57:38;19.80;;;11.05;;
17382;SDS011;8809;51.892;8.384;2022-12-15T03:00:14;16.45;;;9.98;;
17382;SDS011;8809;51.892;8.384;2022-12-15T03:02:45;18.10;;;10.32;;
17382;SDS011;8809;51.892;8.384;2022-12-15T03:05:15;17.67;;;10.77;;
17382;SDS011;8809;51.892;8.384;2022-12-15T03:07:44;15.70;;;10.93;;
17382;SDS011;8809;51.892;8.384;2022-12-15T03:10:11;21.15;;;12.00;;
17382;SDS011;8809;51.892;8.384;2022-12-15T03:12:39;17.35;;;10.40;;
17382;SDS011;8809;51.892;8.384;2022-12-15T03:15:06;17.80;;;10.10;;
17382;SDS011;8809;51.892;8.384;2022-12-15T03:17:34;16.60;;;10.70;;
17382;SDS011;8809;51.892;8.384;2022-12-15T03:20:09;18.92;;;10.20;;
17382;SDS011;8809;51.892;8.384;2022-12-15T03:22:36;17.65;;;10.35;;
17382;SDS011;8809;51.892;8.384;2022-12-15T03:25:03;18.75;;;10.60;;
17382;SDS011;8809;51.892;8.384;2022-12-15T03:27:31;16.73;;;10.18;;
17382;SDS011;8809;51.892;8.384;2022-12-15T03:29:58;14.32;;;9.32;;
17382;SDS011;8809;51.892;8.384;2022-12-15T03:32:24;17.52;;;10.05;;
17382;SDS011;8809;51.892;8.384;2022-12-15T03:34:51;14.43;;;8.98;;
17382;SDS011;8809;51.892;8.384;2022-12-15T03:37:20;17.75;;;8.95;;
17382;SDS011;8809;51.892;8.384;2022-12-15T03:39:47;14.02;;;8.55;;
17382;SDS011;8809;51.892;8.384;2022-12-15T03:42:14;12.88;;;9.18;;
17382;SDS011;8809;51.892;8.384;2022-12-15T03:45:02;13.25;;;7.95;;
17382;SDS011;8809;51.892;8.384;2022-12-15T03:47:29;13.85;;;7.97;;
17382;SDS011;8809;51.892;8.384;2022-12-15T03:49:56;14.45;;;9.35;;
17382;SDS011;8809;51.892;8.384;2022-12-15T03:52:24;14.30;;;8.52;;
17382;SDS011;8809;51.892;8.384;2022-12-15T03:54:51;14.90;;;8.95;;
17382;SDS011;8809;51.892;8.384;2022-12-15T03:57:18;17.00;;;9.45;;
17382;SDS011;8809;51.892;8.384;2022-12-15T03:59:51;16.13;;;9.85;;
17382;SDS011;8809;51.892;8.384;2022-12-15T04:18:02;13.45;;;9.10;;
17382;SDS011;8809;51.892;8.384;2022-12-15T04:20:31;14.88;;;9.60;;
17382;SDS011;8809;51.892;8.384;2022-12-15T04:22:58;14.57;;;8.73;;
17382;SDS011;8809;51.892;8.384;2022-12-15T04:25:26;13.02;;;7.65;;
17382;SDS011;8809;51.892;8.384;2022-12-15T04:28:10;11.43;;;7.70;;
17382;SDS011;8809;51.892;8.384;2022-12-15T04:30:57;11.82;;;8.13;;
17382;SDS011;8809;51.892;8.384;2022-12-15T04:33:45;16.45;;;9.32;;
17382;SDS011;8809;51.892;8.384;2022-12-15T04:36:32;14.23;;;8.52;;
17382;SDS011;8809;51.892;8.384;2022-12-15T04:39:18;14.02;;;8.95;;
17382;SDS011;8809;51.892;8.384;2022-12-15T04:42:03;16.90;;;9.38;;
17382;SDS011;8809;51.892;8.384;2022-12-15T04:44:48;16.92;;;10.20;;
17382;SDS011;8809;51.892;8.384;2022-12-15T04:47:36;18.15;;;9.60;;
17382;SDS011;8809;51.892;8.384;2022-12-15T04:50:20;16.85;;;9.68;;
17382;SDS011;8809;51.892;8.384;2022-12-15T04:53:05;15.60;;;9.65;;
17382;SDS011;8809;51.892;8.384;2022-12-15T04:55:51;15.65;;;9.70;;
17382;SDS011;8809;51.892;8.384;2022-12-15T04:58:35;16.75;;;9.40;;
17382;SDS011;8809;51.892;8.384;2022-12-15T05:01:20;14.35;;;8.73;;
17382;SDS011;8809;51.892;8.384;2022-12-15T05:04:06;15.52;;;9.38;;
17382;SDS011;8809;51.892;8.384;2022-12-15T05:06:50;15.30;;;9.23;;
17382;SDS011;8809;51.892;8.384;2022-12-15T05:09:35;18.17;;;11.00;;
17382;SDS011;8809;51.892;8.384;2022-12-15T05:12:19;18.55;;;11.05;;
17382;SDS011;8809;51.892;8.384;2022-12-15T05:15:03;16.15;;;10.02;;
17382;SDS011;8809;51.892;8.384;2022-12-15T05:17:49;17.17;;;9.57;;
17382;SDS011;8809;51.892;8.384;2022-12-15T05:20:35;19.20;;;10.35;;
17382;SDS011;8809;51.892;8.384;2022-12-15T05:23:19;17.63;;;9.70;;
17382;SDS011;8809;51.892;8.384;2022-12-15T05:26:03;14.75;;;9.27;;
17382;SDS011;8809;51.892;8.384;2022-12-15T05:28:48;15.40;;;10.27;;
17382;SDS011;8809;51.892;8.384;2022-12-15T05:31:32;16.05;;;9.65;;
17382;SDS011;8809;51.892;8.384;2022-12-15T05:34:16;15.80;;;10.07;;
17382;SDS011;8809;51.892;8.384;2022-12-15T05:36:46;19.23;;;10.52;;
17382;SDS011;8809;51.892;8.384;2022-12-15T05:39:13;17.73;;;10.93;;
17382;SDS011;8809;51.892;8.384;2022-12-15T05:41:40;21.38;;;11.18;;
17382;SDS011;8809;51.892;8.384;2022-12-15T05:44:07;16.52;;;10.38;;
17382;SDS011;8809;51.892;8.384;2022-12-15T05:46:34;17.17;;;10.30;;
17382;SDS011;8809;51.892;8.384;2022-12-15T05:49:01;17.83;;;10.60;;
17382;SDS011;8809;51.892;8.384;2022-12-15T05:51:29;16.15;;;9.80;;
17382;SDS011;8809;51.892;8.384;2022-12-15T05:53:57;16.95;;;10.10;;
17382;SDS011;8809;51.892;8.384;2022-12-15T05:56:24;15.95;;;8.73;;
17382;SDS011;8809;51.892;8.384;2022-12-15T05:58:53;13.98;;;8.90;;
17382;SDS011;8809;51.892;8.384;2022-12-15T06:01:21;13.25;;;9.00;;
17382;SDS011;8809;51.892;8.384;2022-12-15T06:03:48;13.77;;;8.80;;
17382;SDS011;8809;51.892;8.384;2022-12-15T06:06:15;14.75;;;8.48;;
17382;SDS011;8809;51.892;8.384;2022-12-15T06:08:42;13.80;;;8.60;;
17382;SDS011;8809;51.892;8.384;2022-12-15T06:11:11;17.02;;;9.63;;
17382;SDS011;8809;51.892;8.384;2022-12-15T06:13:39;16.25;;;9.70;;
17382;SDS011;8809;51.892;8.384;2022-12-15T06:16:08;13.82;;;8.93;;
17382;SDS011;8809;51.892;8.384;2022-12-15T06:18:37;15.23;;;9.55;;
17382;SDS011;8809;51.892;8.384;2022-12-15T06:21:06;16.48;;;9.68;;
17382;SDS011;8809;51.892;8.384;2022-12-15T06:23:35;18.15;;;9.90;;
17382;SDS011;8809;51.892;8.384;2022-12-15T06:26:07;17.75;;;9.90;;
17382;SDS011;8809;51.892;8.384;2022-12-15T06:28:36;13.80;;;8.63;;
17382;SDS011;8809;51.892;8.384;2022-12-15T06:31:04;15.18;;;9.20;;
17382;SDS011;8809;51.892;8.384;2022-12-15T06:33:33;16.15;;;9.20;;
17382;SDS011;8809;51.892;8.384;2022-12-15T06:36:00;14.95;;;9.00;;
17382;SDS011;8809;51.892;8.384;2022-12-15T06:38:29;12.32;;;8.02;;
17382;SDS011;8809;51.892;8.384;2022-12-15T06:40:56;15.45;;;8.82;;
17382;SDS011;8809;51.892;8.384;2022-12-15T06:43:23;16.33;;;9.00;;
17382;SDS011;8809;51.892;8.384;2022-12-15T06:45:52;14.90;;;9.40;;
17382;SDS011;8809;51.892;8.384;2022-12-15T06:48:19;13.73;;;9.18;;
17382;SDS011;8809;51.892;8.384;2022-12-15T06:50:48;15.75;;;9.65;;
17382;SDS011;8809;51.892;8.384;2022-12-15T06:53:15;16.23;;;9.73;;
17382;SDS011;8809;51.892;8.384;2022-12-15T06:55:44;16.70;;;9.80;;
17382;SDS011;8809;51.892;8.384;2022-12-15T06:58:12;17.50;;;10.00;;
17382;SDS011;8809;51.892;8.384;2022-12-15T07:00:39;16.95;;;10.23;;
17382;SDS011;8809;51.892;8.384;2022-12-15T07:03:09;18.40;;;9.57;;
17382;SDS011;8809;51.892;8.384;2022-12-15T07:05:39;18.13;;;10.65;;
17382;SDS011;8809;51.892;8.384;2022-12-15T07:08:07;16.80;;;10.15;;
17382;SDS011;8809;51.892;8.384;2022-12-15T07:10:36;16.38;;;10.60;;
17382;SDS011;8809;51.892;8.384;2022-12-15T07:13:04;18.45;;;10.73;;
17382;SDS011;8809;51.892;8.384;2022-12-15T07:15:32;17.38;;;9.80;;
17382;SDS011;8809;51.892;8.384;2022-12-15T07:17:59;19.63;;;11.35;;
17382;SDS011;8809;51.892;8.384;2022-12-15T07:20:27;17.77;;;9.38;;
17382;SDS011;8809;51.892;8.384;2022-12-15T07:22:54;18.70;;;10.90;;
17382;SDS011;8809;51.892;8.384;2022-12-15T07:25:21;17.25;;;10.48;;
17382;SDS011;8809;51.892;8.384;2022-12-15T07:27:48;15.45;;;10.23;;
17382;SDS011;8809;51.892;8.384;2022-12-15T07:30:15;18.52;;;10.63;;
17382;SDS011;8809;51.892;8.384;2022-12-15T07:32:43;19.90;;;11.55;;
17382;SDS011;8809;51.892;8.384;2022-12-15T07:35:10;18.00;;;11.15;;
17382;SDS011;8809;51.892;8.384;2022-12-15T07:37:38;18.63;;;11.45;;
17382;SDS011;8809;51.892;8.384;2022-12-15T07:40:08;19.60;;;11.48;;
17382;SDS011;8809;51.892;8.384;2022-12-15T07:42:35;22.25;;;12.15;;
17382;SDS011;8809;51.892;8.384;2022-12-15T07:45:03;15.57;;;10.18;;
17382;SDS011;8809;51.892;8.384;2022-12-15T07:47:31;18.50;;;10.98;;
17382;SDS011;8809;51.892;8.384;2022-12-15T07:49:58;20.83;;;11.63;;
17382;SDS011;8809;51.892;8.384;2022-12-15T07:52:25;17.25;;;10.57;;
17382;SDS011;8809;51.892;8.384;2022-12-15T07:54:53;19.15;;;11.75;;
17382;SDS011;8809;51.892;8.384;2022-12-15T07:57:20;15.05;;;9.63;;
17382;SDS011;8809;51.892;8.384;2022-12-15T07:59:47;17.45;;;10.43;;
17382;SDS011;8809;51.892;8.384;2022-12-15T08:02:15;17.55;;;10.32;;
17382;SDS011;8809;51.892;8.384;2022-12-15T08:04:42;18.80;;;10.70;;
17382;SDS011;8809;51.892;8.384;2022-12-15T08:07:09;17.13;;;10.45;;
17382;SDS011;8809;51.892;8.384;2022-12-15T08:09:36;17.60;;;10.80;;
17382;SDS011;8809;51.892;8.384;2022-12-15T08:12:05;15.77;;;9.82;;
17382;SDS011;8809;51.892;8.384;2022-12-15T08:14:32;13.70;;;9.15;;
17382;SDS011;8809;51.892;8.384;2022-12-15T08:16:59;15.77;;;9.50;;
17382;SDS011;8809;51.892;8.384;2022-12-15T08:19:26;15.57;;;9.48;;
17382;SDS011;8809;51.892;8.384;2022-12-15T08:21:54;15.68;;;8.93;;
17382;SDS011;8809;51.892;8.384;2022-12-15T08:24:21;13.57;;;9.48;;
17382;SDS011;8809;51.892;8.384;2022-12-15T08:26:48;13.73;;;8.48;;
17382;SDS011;8809;51.892;8.384;2022-12-15T08:29:19;16.13;;;9.27;;
17382;SDS011;8809;51.892;8.384;2022-12-15T08:31:46;15.85;;;9.27;;
17382;SDS011;8809;51.892;8.384;2022-12-15T08:34:13;14.30;;;9.52;;
17382;SDS011;8809;51.892;8.384;2022-12-15T08:36:40;16.80;;;9.80;;
17382;SDS011;8809;51.892;8.384;2022-12-15T08:39:07;17.35;;;10.18;;
17382;SDS011;8809;51.892;8.384;2022-12-15T08:41:33;15.52;;;9.13;;
17382;SDS011;8809;51.892;8.384;2022-12-15T08:44:00;16.98;;;10.57;;
17382;SDS011;8809;51.892;8.384;2022-12-15T08:46:30;15.50;;;9.20;;
17382;SDS011;8809;51.892;8.384;2022-12-15T08:48:58;16.73;;;9.63;;
17382;SDS011;8809;51.892;8.384;2022-12-15T08:51:26;13.07;;;8.63;;
17382;SDS011;8809;51.892;8.384;2022-12-15T08:53:56;16.63;;;9.43;;
17382;SDS011;8809;51.892;8.384;2022-12-15T08:56:24;15.98;;;9.93;;
17382;SDS011;8809;51.892;8.384;2022-12-15T08:58:53;14.07;;;8.50;;
17382;SDS011;8809;51.892;8.384;2022-12-15T09:01:24;15.38;;;8.77;;
17382;SDS011;8809;51.892;8.384;2022-12-15T09:03:54;14.18;;;9.07;;
17382;SDS011;8809;51.892;8.384;2022-12-15T09:06:23;15.32;;;9.27;;
17382;SDS011;8809;51.892;8.384;2022-12-15T09:08:52;12.18;;;8.35;;
17382;SDS011;8809;51.892;8.384;2022-12-15T09:11:21;13.50;;;8.27;;
17382;SDS011;8809;51.892;8.384;2022-12-15T09:13:48;14.48;;;8.10;;
17382;SDS011;8809;51.892;8.384;2022-12-15T09:16:16;12.20;;;8.73;;
17382;SDS011;8809;51.892;8.384;2022-12-15T09:18:44;14.18;;;8.20;;
17382;SDS011;8809;51.892;8.384;2022-12-15T09:21:15;12.27;;;7.85;;
17382;SDS011;8809;51.892;8.384;2022-12-15T09:23:46;14.35;;;8.45;;
17382;SDS011;8809;51.892;8.384;2022-12-15T09:26:13;14.82;;;8.18;;
17382;SDS011;8809;51.892;8.384;2022-12-15T09:28:41;14.18;;;8.68;;
17382;SDS011;8809;51.892;8.384;2022-12-15T09:31:09;13.90;;;8.25;;
17382;SDS011;8809;51.892;8.384;2022-12-15T09:33:37;15.63;;;9.02;;
17382;SDS011;8809;51.892;8.384;2022-12-15T09:36:05;14.40;;;9.00;;
17382;SDS011;8809;51.892;8.384;2022-12-15T09:38:35;14.68;;;8.27;;
17382;SDS011;8809;51.892;8.384;2022-12-15T09:41:07;16.50;;;8.45;;
17382;SDS011;8809;51.892;8.384;2022-12-15T09:43:44;15.68;;;9.27;;
17382;SDS011;8809;51.892;8.384;2022-12-15T09:46:19;14.57;;;8.90;;
17382;SDS011;8809;51.892;8.384;2022-12-15T09:48:52;13.15;;;9.00;;
17382;SDS011;8809;51.892;8.384;2022-12-15T09:51:24;15.30;;;9.35;;
17382;SDS011;8809;51.892;8.384;2022-12-15T09:54:00;15.15;;;9.18;;
17382;SDS011;8809;51.892;8.384;2022-12-15T09:56:31;15.68;;;9.88;;
17382;SDS011;8809;51.892;8.384;2022-12-15T09:59:08;16.20;;;10.57;;
17382;SDS011;8809;51.892;8.384;2022-12-15T10:01:55;16.38;;;9.73;;
17382;SDS011;8809;51.892;8.384;2022-12-15T10:04:40;14.93;;;9.95;;
17382;SDS011;8809;51.892;8.384;2022-12-15T10:07:16;17.58;;;10.43;;
17382;SDS011;8809;51.892;8.384;2022-12-15T10:09:50;18.15;;;10.40;;
17382;SDS011;8809;51.892;8.384;2022-12-15T10:12:18;13.57;;;9.32;;
17382;SDS011;8809;51.892;8.384;2022-12-15T10:14:49;17.23;;;9.70;;
17382;SDS011;8809;51.892;8.384;2022-12-15T10:17:20;14.52;;;9.38;;
17382;SDS011;8809;51.892;8.384;2022-12-15T10:19:51;14.35;;;9.88;;
17382;SDS011;8809;51.892;8.384;2022-12-15T10:22:21;22.88;;;12.50;;
17382;SDS011;8809;51.892;8.384;2022-12-15T10:24:52;19.52;;;11.63;;
17382;SDS011;8809;51.892;8.384;2022-12-15T10:27:23;18.00;;;11.95;;
17382;SDS011;8809;51.892;8.384;2022-12-15T10:29:59;24.13;;;12.32;;
17382;SDS011;8809;51.892;8.384;2022-12-15T10:32:29;19.55;;;12.20;;
17382;SDS011;8809;51.892;8.384;2022-12-15T10:35:07;19.42;;;11.32;;
17382;SDS011;8809;51.892;8.384;2022-12-15T10:37:40;15.90;;;10.70;;
17382;SDS011;8809;51.892;8.384;2022-12-15T10:40:16;16.23;;;10.05;;
17382;SDS011;8809;51.892;8.384;2022-12-15T10:42:45;17.58;;;10.60;;
17382;SDS011;8809;51.892;8.384;2022-12-15T10:47:59;17.10;;;11.27;;
17382;SDS011;8809;51.892;8.384;2022-12-15T10:50:28;19.75;;;10.98;;
17382;SDS011;8809;51.892;8.384;2022-12-15T10:52:55;18.38;;;11.80;;
17382;SDS011;8809;51.892;8.384;2022-12-15T10:55:32;20.02;;;13.13;;
17382;SDS011;8809;51.892;8.384;2022-12-15T10:58:03;18.20;;;12.32;;
17382;SDS011;8809;51.892;8.384;2022-12-15T11:00:39;17.88;;;10.93;;
17382;SDS011;8809;51.892;8.384;2022-12-15T11:03:11;21.63;;;12.35;;
17382;SDS011;8809;51.892;8.384;2022-12-15T11:05:49;19.88;;;11.73;;
17382;SDS011;8809;51.892;8.384;2022-12-15T11:08:18;21.15;;;12.82;;
17382;SDS011;8809;51.892;8.384;2022-12-15T11:10:51;22.73;;;13.20;;
17382;SDS011;8809;51.892;8.384;2022-12-15T11:13:37;20.33;;;13.50;;
17382;SDS011;8809;51.892;8.384;2022-12-15T11:16:13;22.38;;;12.90;;
17382;SDS011;8809;51.892;8.384;2022-12-15T11:18:41;20.02;;;11.85;;
17382;SDS011;8809;51.892;8.384;2022-12-15T11:21:16;15.40;;;10.60;;
17382;SDS011;8809;51.892;8.384;2022-12-15T11:23:49;18.98;;;11.45;;
17382;SDS011;8809;51.892;8.384;2022-12-15T11:26:25;14.80;;;9.80;;
17382;SDS011;8809;51.892;8.384;2022-12-15T11:29:08;14.43;;;9.02;;
17382;SDS011;8809;51.892;8.384;2022-12-15T11:31:41;16.30;;;11.40;;
17382;SDS011;8809;51.892;8.384;2022-12-15T11:34:10;20.52;;;12.82;;
17382;SDS011;8809;51.892;8.384;2022-12-15T11:36:54;18.00;;;12.38;;
17382;SDS011;8809;51.892;8.384;2022-12-15T11:39:33;20.92;;;12.32;;
17382;SDS011;8809;51.892;8.384;2022-12-15T11:42:12;19.60;;;12.68;;
17382;SDS011;8809;51.892;8.384;2022-12-15T11:44:48;18.75;;;12.02;;
17382;SDS011;8809;51.892;8.384;2022-12-15T11:47:25;17.63;;;10.90;;
17382;SDS011;8809;51.892;8.384;2022-12-15T11:50:20;16.77;;;11.20;;
17382;SDS011;8809;51.892;8.384;2022-12-15T11:53:05;15.73;;;10.48;;
17382;SDS011;8809;51.892;8.384;2022-12-15T11:55:46;17.75;;;10.48;;
17382;SDS011;8809;51.892;8.384;2022-12-15T11:58:26;18.85;;;11.60;;
17382;SDS011;8809;51.892;8.384;2022-12-15T12:01:10;22.40;;;12.50;;
17382;SDS011;8809;51.892;8.384;2022-12-15T12:03:48;17.42;;;12.25;;
17382;SDS011;8809;51.892;8.384;2022-12-15T12:06:29;18.13;;;11.63;;
17382;SDS011;8809;51.892;8.384;2022-12-15T12:09:09;16.98;;;11.00;;
17382;SDS011;8809;51.892;8.384;2022-12-15T12:11:52;17.95;;;11.18;;
17382;SDS011;8809;51.892;8.384;2022-12-15T12:14:33;18.08;;;11.68;;
17382;SDS011;8809;51.892;8.384;2022-12-15T12:17:09;16.60;;;11.38;;
17382;SDS011;8809;51.892;8.384;2022-12-15T12:19:44;20.83;;;12.20;;
17382;SDS011;8809;51.892;8.384;2022-12-15T12:22:19;15.57;;;10.38;;
17382;SDS011;8809;51.892;8.384;2022-12-15T12:24:50;17.08;;;10.10;;
17382;SDS011;8809;51.892;8.384;2022-12-15T12:27:25;19.05;;;12.05;;
17382;SDS011;8809;51.892;8.384;2022-12-15T12:29:59;26.10;;;13.85;;
17382;SDS011;8809;51.892;8.384;2022-12-15T12:32:32;17.15;;;11.02;;
17382;SDS011;8809;51.892;8.384;2022-12-15T12:35:08;17.85;;;11.15;;
17382;SDS011;8809;51.892;8.384;2022-12-15T12:37:41;15.82;;;10.57;;
17382;SDS011;8809;51.892;8.384;2022-12-15T12:40:18;17.15;;;11.43;;
17382;SDS011;8809;51.892;8.384;2022-12-15T12:42:54;15.27;;;10.23;;
17382;SDS011;8809;51.892;8.384;2022-12-15T12:45:25;21.27;;;12.50;;
17382;SDS011;8809;51.892;8.384;2022-12-15T12:47:58;20.77;;;12.48;;
17382;SDS011;8809;51.892;8.384;2022-12-15T12:50:31;18.85;;;11.55;;
17382;SDS011;8809;51.892;8.384;2022-12-15T12:53:00;17.67;;;10.43;;
17382;SDS011;8809;51.892;8.384;2022-12-15T12:55:34;19.20;;;11.82;;
17382;SDS011;8809;51.892;8.384;2022-12-15T13:01:17;19.70;;;11.80;;
17382;SDS011;8809;51.892;8.384;2022-12-15T13:04:03;15.25;;;10.52;;
17382;SDS011;8809;51.892;8.384;2022-12-15T13:09:35;17.75;;;10.82;;
17382;SDS011;8809;51.892;8.384;2022-12-15T13:12:04;19.55;;;12.55;;
17382;SDS011;8809;51.892;8.384;2022-12-15T13:15:11;17.25;;;11.68;;
17382;SDS011;8809;51.892;8.384;2022-12-15T13:17:47;20.30;;;12.10;;
17382;SDS011;8809;51.892;8.384;2022-12-15T13:20:20;17.38;;;11.30;;
17382;SDS011;8809;51.892;8.384;2022-12-15T13:22:50;17.65;;;12.23;;
17382;SDS011;8809;51.892;8.384;2022-12-15T13:25:36;19.52;;;13.20;;
17382;SDS011;8809;51.892;8.384;2022-12-15T13:28:23;16.85;;;11.27;;
17382;SDS011;8809;51.892;8.384;2022-12-15T13:33:54;17.95;;;10.77;;
17382;SDS011;8809;51.892;8.384;2022-12-15T13:36:43;14.25;;;9.63;;
17382;SDS011;8809;51.892;8.384;2022-12-15T13:39:34;15.18;;;9.65;;
17382;SDS011;8809;51.892;8.384;2022-12-15T13:42:34;14.98;;;8.75;;
17382;SDS011;8809;51.892;8.384;2022-12-15T13:45:21;13.10;;;8.77;;
17382;SDS011;8809;51.892;8.384;2022-12-15T13:47:58;12.85;;;8.55;;
17382;SDS011;8809;51.892;8.384;2022-12-15T13:50:30;13.27;;;8.90;;
17382;SDS011;8809;51.892;8.384;2022-12-15T13:53:05;13.50;;;9.10;;
17382;SDS011;8809;51.892;8.384;2022-12-15T13:55:39;14.93;;;9.38;;
17382;SDS011;8809;51.892;8.384;2022-12-15T13:58:17;12.38;;;8.35;;
17382;SDS011;8809;51.892;8.384;2022-12-15T14:00:51;16.25;;;9.77;;
17382;SDS011;8809;51.892;8.384;2022-12-15T14:03:19;16.60;;;10.75;;
17382;SDS011;8809;51.892;8.384;2022-12-15T14:05:47;15.38;;;9.45;;
17382;SDS011;8809;51.892;8.384;2022-12-15T14:08:16;14.90;;;9.57;;
17382;SDS011;8809;51.892;8.384;2022-12-15T14:10:47;14.15;;;8.73;;
17382;SDS011;8809;51.892;8.384;2022-12-15T14:13:17;12.55;;;8.65;;
17382;SDS011;8809;51.892;8.384;2022-12-15T14:15:51;11.50;;;7.95;;
17382;SDS011;8809;51.892;8.384;2022-12-15T14:18:25;10.40;;;7.93;;
17382;SDS011;8809;51.892;8.384;2022-12-15T14:20:53;12.10;;;8.05;;
17382;SDS011;8809;51.892;8.384;2022-12-15T14:23:21;10.27;;;7.75;;
17382;SDS011;8809;51.892;8.384;2022-12-15T14:25:54;11.68;;;7.35;;
17382;SDS011;8809;51.892;8.384;2022-12-15T14:28:23;11.70;;;7.60;;
17382;SDS011;8809;51.892;8.384;2022-12-15T14:30:53;9.90;;;7.53;;
17382;SDS011;8809;51.892;8.384;2022-12-15T14:33:23;9.63;;;6.75;;
17382;SDS011;8809;51.892;8.384;2022-12-15T14:35:51;9.10;;;6.70;;
17382;SDS011;8809;51.892;8.384;2022-12-15T14:38:23;12.40;;;8.13;;
17382;SDS011;8809;51.892;8.384;2022-12-15T14:40:54;9.75;;;6.47;;
17382;SDS011;8809;51.892;8.384;2022-12-15T14:43:25;11.77;;;8.73;;
17382;SDS011;8809;51.892;8.384;2022-12-15T14:46:04;11.95;;;8.00;;
17382;SDS011;8809;51.892;8.384;2022-12-15T14:48:35;14.48;;;10.10;;
17382;SDS011;8809;51.892;8.384;2022-12-15T14:51:04;11.68;;;8.68;;
17382;SDS011;8809;51.892;8.384;2022-12-15T14:53:36;13.45;;;8.52;;
17382;SDS011;8809;51.892;8.384;2022-12-15T14:56:12;13.95;;;9.73;;
17382;SDS011;8809;51.892;8.384;2022-12-15T14:58:46;13.70;;;9.00;;
17382;SDS011;8809;51.892;8.384;2022-12-15T15:01:24;12.73;;;9.57;;
17382;SDS011;8809;51.892;8.384;2022-12-15T15:03:57;12.90;;;9.57;;
17382;SDS011;8809;51.892;8.384;2022-12-15T15:06:29;15.68;;;10.50;;
17382;SDS011;8809;51.892;8.384;2022-12-15T15:09:02;14.20;;;9.73;;
17382;SDS011;8809;51.892;8.384;2022-12-15T15:11:39;16.35;;;10.00;;
17382;SDS011;8809;51.892;8.384;2022-12-15T15:14:09;16.10;;;9.80;;
17382;SDS011;8809;51.892;8.384;2022-12-15T15:16:41;13.52;;;9.15;;
17382;SDS011;8809;51.892;8.384;2022-12-15T15:19:10;12.85;;;9.02;;
17382;SDS011;8809;51.892;8.384;2022-12-15T15:21:45;14.93;;;9.70;;
17382;SDS011;8809;51.892;8.384;2022-12-15T15:24:23;13.27;;;8.68;;
17382;SDS011;8809;51.892;8.384;2022-12-15T15:26:51;14.60;;;9.25;;
17382;SDS011;8809;51.892;8.384;2022-12-15T15:29:32;14.00;;;8.73;;
17382;SDS011;8809;51.892;8.384;2022-12-15T15:32:05;18.17;;;11.45;;
17382;SDS011;8809;51.892;8.384;2022-12-15T15:34:40;20.83;;;12.50;;
17382;SDS011;8809;51.892;8.384;2022-12-15T15:37:09;16.92;;;11.20;;
17382;SDS011;8809;51.892;8.384;2022-12-15T15:39:41;16.05;;;11.38;;
17382;SDS011;8809;51.892;8.384;2022-12-15T15:42:09;19.80;;;12.85;;
17382;SDS011;8809;51.892;8.384;2022-12-15T15:44:37;17.50;;;11.85;;
17382;SDS011;8809;51.892;8.384;2022-12-15T15:47:06;19.65;;;11.38;;
17382;SDS011;8809;51.892;8.384;2022-12-15T15:49:44;16.23;;;10.57;;